sensor_id;sensor_type;location;lat;lon;timestamp;temperature;humidity
20125;DHT22;10223;50.862;4.360;2023-01-29T00:01:32;1.70;99.90
20125;DHT22;10223;50.862;4.360;2023-01-29T00:03:59;1.60;99.90
20125;DHT22;10223;50.862;4.360;2023-01-29T00:06:26;1.60;99.90
20125;DHT22;10223;50.862;4.360;2023-01-29T00:08:52;1.50;99.90
20125;DHT22;10223;50.862;4.360;2023-01-29T00:11:19;1.50;99.90
20125;DHT22;10223;50.862;4.360;2023-01-29T00:13:46;1.50;99.90
20125;DHT22;10223;50.862;4.360;2023-01-29T00:16:13;1.50;99.90
20125;DHT22;10223;50.862;4.360;2023-01-29T00:18:42;1.60;99.90
20125;DHT22;10223;50.862;4.360;2023-01-29T00:21:09;1.70;99.90
20125;DHT22;10223;50.862;4.360;2023-01-29T00:23:37;1.60;99.90
20125;DHT22;10223;50.862;4.360;2023-01-29T00:26:04;1.60;99.90
20125;DHT22;10223;50.862;4.360;2023-01-29T00:28:31;1.50;99.90
20125;DHT22;10223;50.862;4.360;2023-01-29T00:31:05;1.50;99.90
20125;DHT22;10223;50.862;4.360;2023-01-29T00:33:32;1.60;99.90
20125;DHT22;10223;50.862;4.360;2023-01-29T00:36:03;1.50;99.90
20125;DHT22;10223;50.862;4.360;2023-01-29T00:38:30;1.60;99.90
20125;DHT22;10223;50.862;4.360;2023-01-29T00:40:57;1.70;99.90
20125;DHT22;10223;50.862;4.360;2023-01-29T00:43:42;1.70;99.90
20125;DHT22;10223;50.862;4.360;2023-01-29T00:46:26;1.80;99.90
20125;DHT22;10223;50.862;4.360;2023-01-29T00:48:53;1.70;99.90
20125;DHT22;10223;50.862;4.360;2023-01-29T00:51:21;1.70;99.90
20125;DHT22;10223;50.862;4.360;2023-01-29T00:53:48;1.70;99.90
20125;DHT22;10223;50.862;4.360;2023-01-29T00:56:15;1.60;99.90
20125;DHT22;10223;50.862;4.360;2023-01-29T00:58:42;1.50;99.90
20125;DHT22;10223;50.862;4.360;2023-01-29T01:01:09;1.50;99.90
20125;DHT22;10223;50.862;4.360;2023-01-29T01:03:35;1.40;99.90
20125;DHT22;10223;50.862;4.360;2023-01-29T01:06:08;1.50;99.90
20125;DHT22;10223;50.862;4.360;2023-01-29T01:08:36;1.60;99.90
20125;DHT22;10223;50.862;4.360;2023-01-29T01:11:20;1.60;99.90
20125;DHT22;10223;50.862;4.360;2023-01-29T01:13:47;1.70;99.90
20125;DHT22;10223;50.862;4.360;2023-01-29T01:16:16;1.70;99.90
20125;DHT22;10223;50.862;4.360;2023-01-29T01:18:45;1.80;99.90
20125;DHT22;10223;50.862;4.360;2023-01-29T01:21:12;1.60;99.90
20125;DHT22;10223;50.862;4.360;2023-01-29T01:23:40;1.80;99.90
20125;DHT22;10223;50.862;4.360;2023-01-29T01:26:08;1.40;99.90
20125;DHT22;10223;50.862;4.360;2023-01-29T01:28:36;1.40;99.90
20125;DHT22;10223;50.862;4.360;2023-01-29T01:31:08;1.50;99.90
20125;DHT22;10223;50.862;4.360;2023-01-29T01:33:35;1.20;99.90
20125;DHT22;10223;50.862;4.360;2023-01-29T01:36:03;1.20;99.90
20125;DHT22;10223;50.862;4.360;2023-01-29T01:38:35;1.20;99.90
20125;DHT22;10223;50.862;4.360;2023-01-29T01:41:10;1.20;99.90
20125;DHT22;10223;50.862;4.360;2023-01-29T01:43:52;1.20;99.90
20125;DHT22;10223;50.862;4.360;2023-01-29T01:46:20;1.30;99.90
20125;DHT22;10223;50.862;4.360;2023-01-29T01:48:50;1.30;99.90
20125;DHT22;10223;50.862;4.360;2023-01-29T01:51:19;1.10;99.90
20125;DHT22;10223;50.862;4.360;2023-01-29T01:53:52;1.00;99.90
20125;DHT22;10223;50.862;4.360;2023-01-29T01:56:24;0.90;99.90
20125;DHT22;10223;50.862;4.360;2023-01-29T01:58:54;0.90;99.90
20125;DHT22;10223;50.862;4.360;2023-01-29T02:01:23;0.90;99.90
20125;DHT22;10223;50.862;4.360;2023-01-29T02:03:55;1.00;99.90
20125;DHT22;10223;50.862;4.360;2023-01-29T02:06:41;1.10;99.90
20125;DHT22;10223;50.862;4.360;2023-01-29T02:09:30;0.90;99.90
20125;DHT22;10223;50.862;4.360;2023-01-29T02:12:05;0.90;99.90
20125;DHT22;10223;50.862;4.360;2023-01-29T02:14:32;0.80;99.90
20125;DHT22;10223;50.862;4.360;2023-01-29T02:17:03;0.70;99.90
20125;DHT22;10223;50.862;4.360;2023-01-29T02:19:38;0.80;99.90
20125;DHT22;10223;50.862;4.360;2023-01-29T02:22:33;0.70;99.90
20125;DHT22;10223;50.862;4.360;2023-01-29T02:25:26;0.70;99.90
20125;DHT22;10223;50.862;4.360;2023-01-29T02:28:18;0.80;99.90
20125;DHT22;10223;50.862;4.360;2023-01-29T02:30:57;0.80;99.90
20125;DHT22;10223;50.862;4.360;2023-01-29T02:33:32;0.90;99.90
20125;DHT22;10223;50.862;4.360;2023-01-29T02:36:11;0.70;99.90
20125;DHT22;10223;50.862;4.360;2023-01-29T02:38:45;0.60;99.90
20125;DHT22;10223;50.862;4.360;2023-01-29T02:41:20;0.70;99.90
20125;DHT22;10223;50.862;4.360;2023-01-29T02:43:54;0.80;99.90
20125;DHT22;10223;50.862;4.360;2023-01-29T02:46:31;0.70;99.90
20125;DHT22;10223;50.862;4.360;2023-01-29T02:49:07;0.70;99.90
20125;DHT22;10223;50.862;4.360;2023-01-29T02:51:42;0.80;99.90
20125;DHT22;10223;50.862;4.360;2023-01-29T02:54:16;0.80;99.90
20125;DHT22;10223;50.862;4.360;2023-01-29T02:56:50;0.70;99.90
20125;DHT22;10223;50.862;4.360;2023-01-29T02:59:21;0.60;99.90
20125;DHT22;10223;50.862;4.360;2023-01-29T03:01:54;0.60;99.90
20125;DHT22;10223;50.862;4.360;2023-01-29T03:04:30;0.70;99.90
20125;DHT22;10223;50.862;4.360;2023-01-29T03:07:01;0.80;99.90
20125;DHT22;10223;50.862;4.360;2023-01-29T03:09:33;0.70;99.90
20125;DHT22;10223;50.862;4.360;2023-01-29T03:12:07;0.90;99.90
20125;DHT22;10223;50.862;4.360;2023-01-29T03:14:57;0.70;99.90
20125;DHT22;10223;50.862;4.360;2023-01-29T03:17:44;0.60;99.90
20125;DHT22;10223;50.862;4.360;2023-01-29T03:20:17;0.60;99.90
20125;DHT22;10223;50.862;4.360;2023-01-29T03:22:48;0.70;99.90
20125;DHT22;10223;50.862;4.360;2023-01-29T03:25:20;0.60;99.90
20125;DHT22;10223;50.862;4.360;2023-01-29T03:28:07;0.50;99.90
20125;DHT22;10223;50.862;4.360;2023-01-29T03:30:56;0.40;99.90
20125;DHT22;10223;50.862;4.360;2023-01-29T03:33:46;0.30;99.90
20125;DHT22;10223;50.862;4.360;2023-01-29T03:36:21;0.40;99.90
20125;DHT22;10223;50.862;4.360;2023-01-29T03:38:49;0.40;99.90
20125;DHT22;10223;50.862;4.360;2023-01-29T03:41:23;0.40;99.90
20125;DHT22;10223;50.862;4.360;2023-01-29T03:43:55;0.30;99.90
20125;DHT22;10223;50.862;4.360;2023-01-29T03:46:37;0.10;99.90
20125;DHT22;10223;50.862;4.360;2023-01-29T03:49:11;0.20;99.90
20125;DHT22;10223;50.862;4.360;2023-01-29T03:51:47;0.10;99.90
20125;DHT22;10223;50.862;4.360;2023-01-29T03:54:22;0.10;99.90
20125;DHT22;10223;50.862;4.360;2023-01-29T03:56:57;0.00;99.90
20125;DHT22;10223;50.862;4.360;2023-01-29T03:59:34;0.10;99.90
20125;DHT22;10223;50.862;4.360;2023-01-29T04:02:09;0.00;99.90
20125;DHT22;10223;50.862;4.360;2023-01-29T04:04:41;0.10;99.90
20125;DHT22;10223;50.862;4.360;2023-01-29T04:07:11;0.10;99.90
20125;DHT22;10223;50.862;4.360;2023-01-29T04:09:45;0.10;99.90
20125;DHT22;10223;50.862;4.360;2023-01-29T04:12:14;0.20;99.90
20125;DHT22;10223;50.862;4.360;2023-01-29T04:14:43;0.30;99.90
20125;DHT22;10223;50.862;4.360;2023-01-29T04:17:15;0.30;99.90
20125;DHT22;10223;50.862;4.360;2023-01-29T04:19:44;0.30;99.90
20125;DHT22;10223;50.862;4.360;2023-01-29T04:22:14;0.30;99.90
20125;DHT22;10223;50.862;4.360;2023-01-29T04:24:43;0.40;99.90
20125;DHT22;10223;50.862;4.360;2023-01-29T04:27:22;0.40;99.90
20125;DHT22;10223;50.862;4.360;2023-01-29T04:30:02;0.30;99.90
20125;DHT22;10223;50.862;4.360;2023-01-29T04:32:42;0.20;99.90
20125;DHT22;10223;50.862;4.360;2023-01-29T04:35:25;0.20;99.90
20125;DHT22;10223;50.862;4.360;2023-01-29T04:38:03;0.20;99.90
20125;DHT22;10223;50.862;4.360;2023-01-29T04:40:41;0.10;99.90
20125;DHT22;10223;50.862;4.360;2023-01-29T04:43:17;0.20;99.90
20125;DHT22;10223;50.862;4.360;2023-01-29T04:45:57;0.10;99.90
20125;DHT22;10223;50.862;4.360;2023-01-29T04:48:32;0.10;99.90
20125;DHT22;10223;50.862;4.360;2023-01-29T04:51:08;0.20;99.90
20125;DHT22;10223;50.862;4.360;2023-01-29T04:53:43;0.10;99.90
20125;DHT22;10223;50.862;4.360;2023-01-29T04:56:18;0.10;99.90
20125;DHT22;10223;50.862;4.360;2023-01-29T04:58:50;0.10;99.90
20125;DHT22;10223;50.862;4.360;2023-01-29T05:01:19;0.30;99.90
20125;DHT22;10223;50.862;4.360;2023-01-29T05:03:53;0.20;99.90
20125;DHT22;10223;50.862;4.360;2023-01-29T05:06:21;0.10;99.90
20125;DHT22;10223;50.862;4.360;2023-01-29T05:08:50;0.10;99.90
20125;DHT22;10223;50.862;4.360;2023-01-29T05:11:18;0.10;99.90
20125;DHT22;10223;50.862;4.360;2023-01-29T05:13:47;0.10;99.90
20125;DHT22;10223;50.862;4.360;2023-01-29T05:16:18;0.10;99.90
20125;DHT22;10223;50.862;4.360;2023-01-29T05:18:46;0.10;99.90
20125;DHT22;10223;50.862;4.360;2023-01-29T05:21:14;0.10;99.90
20125;DHT22;10223;50.862;4.360;2023-01-29T05:23:41;0.20;99.90
20125;DHT22;10223;50.862;4.360;2023-01-29T05:26:18;0.20;99.90
20125;DHT22;10223;50.862;4.360;2023-01-29T05:29:02;0.20;99.90
20125;DHT22;10223;50.862;4.360;2023-01-29T05:31:29;0.20;99.90
20125;DHT22;10223;50.862;4.360;2023-01-29T05:33:56;0.10;99.90
20125;DHT22;10223;50.862;4.360;2023-01-29T05:36:25;0.20;99.90
20125;DHT22;10223;50.862;4.360;2023-01-29T05:38:52;0.30;99.90
20125;DHT22;10223;50.862;4.360;2023-01-29T05:41:19;0.30;99.90
20125;DHT22;10223;50.862;4.360;2023-01-29T05:43:46;0.40;99.90
20125;DHT22;10223;50.862;4.360;2023-01-29T05:46:13;0.50;99.90
20125;DHT22;10223;50.862;4.360;2023-01-29T05:48:40;0.40;99.90
20125;DHT22;10223;50.862;4.360;2023-01-29T05:51:07;0.30;99.90
20125;DHT22;10223;50.862;4.360;2023-01-29T05:53:35;0.40;99.90
20125;DHT22;10223;50.862;4.360;2023-01-29T05:56:03;0.40;99.90
20125;DHT22;10223;50.862;4.360;2023-01-29T05:58:31;0.30;99.90
20125;DHT22;10223;50.862;4.360;2023-01-29T06:01:07;0.30;99.90
20125;DHT22;10223;50.862;4.360;2023-01-29T06:03:34;0.40;99.90
20125;DHT22;10223;50.862;4.360;2023-01-29T06:06:01;0.30;99.90
20125;DHT22;10223;50.862;4.360;2023-01-29T06:08:28;0.40;99.90
20125;DHT22;10223;50.862;4.360;2023-01-29T06:10:56;0.40;99.90
20125;DHT22;10223;50.862;4.360;2023-01-29T06:13:23;0.30;99.90
20125;DHT22;10223;50.862;4.360;2023-01-29T06:15:50;0.20;99.90
20125;DHT22;10223;50.862;4.360;2023-01-29T06:18:17;0.20;99.90
20125;DHT22;10223;50.862;4.360;2023-01-29T06:20:44;0.20;99.90
20125;DHT22;10223;50.862;4.360;2023-01-29T06:23:11;0.20;99.90
20125;DHT22;10223;50.862;4.360;2023-01-29T06:25:38;0.30;99.90
20125;DHT22;10223;50.862;4.360;2023-01-29T06:28:06;0.40;99.90
20125;DHT22;10223;50.862;4.360;2023-01-29T06:30:33;0.50;99.90
20125;DHT22;10223;50.862;4.360;2023-01-29T06:33:00;0.60;99.90
20125;DHT22;10223;50.862;4.360;2023-01-29T06:35:27;0.50;99.90
20125;DHT22;10223;50.862;4.360;2023-01-29T06:37:55;0.50;99.90
20125;DHT22;10223;50.862;4.360;2023-01-29T06:40:22;0.60;99.90
20125;DHT22;10223;50.862;4.360;2023-01-29T06:42:49;0.80;99.90
20125;DHT22;10223;50.862;4.360;2023-01-29T06:45:17;0.60;99.90
20125;DHT22;10223;50.862;4.360;2023-01-29T06:47:44;0.70;99.90
20125;DHT22;10223;50.862;4.360;2023-01-29T06:50:11;0.80;99.90
20125;DHT22;10223;50.862;4.360;2023-01-29T06:52:38;0.90;99.90
20125;DHT22;10223;50.862;4.360;2023-01-29T06:55:06;0.90;99.90
20125;DHT22;10223;50.862;4.360;2023-01-29T06:57:33;0.90;99.90
20125;DHT22;10223;50.862;4.360;2023-01-29T07:00:00;0.90;99.90
20125;DHT22;10223;50.862;4.360;2023-01-29T07:02:28;0.90;99.90
20125;DHT22;10223;50.862;4.360;2023-01-29T07:04:55;0.80;99.90
20125;DHT22;10223;50.862;4.360;2023-01-29T07:07:22;0.90;99.90
20125;DHT22;10223;50.862;4.360;2023-01-29T07:09:49;1.00;99.90
20125;DHT22;10223;50.862;4.360;2023-01-29T07:12:16;0.90;99.90
20125;DHT22;10223;50.862;4.360;2023-01-29T07:14:43;1.00;99.90
20125;DHT22;10223;50.862;4.360;2023-01-29T07:17:10;1.00;99.90
20125;DHT22;10223;50.862;4.360;2023-01-29T07:19:38;1.10;99.90
20125;DHT22;10223;50.862;4.360;2023-01-29T07:22:05;1.10;99.90
20125;DHT22;10223;50.862;4.360;2023-01-29T07:24:32;1.40;99.90
20125;DHT22;10223;50.862;4.360;2023-01-29T07:26:59;1.30;99.90
20125;DHT22;10223;50.862;4.360;2023-01-29T07:29:26;1.40;99.90
20125;DHT22;10223;50.862;4.360;2023-01-29T07:31:52;1.30;99.90
20125;DHT22;10223;50.862;4.360;2023-01-29T07:34:20;1.40;99.90
20125;DHT22;10223;50.862;4.360;2023-01-29T07:36:48;1.60;99.90
20125;DHT22;10223;50.862;4.360;2023-01-29T07:39:18;1.70;99.90
20125;DHT22;10223;50.862;4.360;2023-01-29T07:41:45;1.70;99.90
20125;DHT22;10223;50.862;4.360;2023-01-29T07:44:12;1.80;99.90
20125;DHT22;10223;50.862;4.360;2023-01-29T07:46:39;1.70;99.90
20125;DHT22;10223;50.862;4.360;2023-01-29T07:49:06;1.60;99.90
20125;DHT22;10223;50.862;4.360;2023-01-29T07:51:33;1.60;99.90
20125;DHT22;10223;50.862;4.360;2023-01-29T07:54:01;1.70;99.90
20125;DHT22;10223;50.862;4.360;2023-01-29T07:56:28;1.60;99.90
20125;DHT22;10223;50.862;4.360;2023-01-29T07:58:55;1.70;99.90
20125;DHT22;10223;50.862;4.360;2023-01-29T08:01:22;1.70;99.90
20125;DHT22;10223;50.862;4.360;2023-01-29T08:03:49;1.70;99.90
20125;DHT22;10223;50.862;4.360;2023-01-29T08:06:16;1.60;99.90
20125;DHT22;10223;50.862;4.360;2023-01-29T08:08:43;1.70;99.90
20125;DHT22;10223;50.862;4.360;2023-01-29T08:11:12;1.80;99.90
20125;DHT22;10223;50.862;4.360;2023-01-29T08:13:39;1.80;99.90
20125;DHT22;10223;50.862;4.360;2023-01-29T08:16:07;1.70;99.90
20125;DHT22;10223;50.862;4.360;2023-01-29T08:18:35;1.70;99.90
20125;DHT22;10223;50.862;4.360;2023-01-29T08:21:03;1.70;99.90
20125;DHT22;10223;50.862;4.360;2023-01-29T08:23:30;1.70;99.90
20125;DHT22;10223;50.862;4.360;2023-01-29T08:25:57;1.70;99.90
20125;DHT22;10223;50.862;4.360;2023-01-29T08:28:25;1.70;99.90
20125;DHT22;10223;50.862;4.360;2023-01-29T08:30:52;1.80;99.90
20125;DHT22;10223;50.862;4.360;2023-01-29T08:33:19;1.90;99.90
20125;DHT22;10223;50.862;4.360;2023-01-29T08:35:48;2.00;99.90
20125;DHT22;10223;50.862;4.360;2023-01-29T08:38:15;1.90;99.90
20125;DHT22;10223;50.862;4.360;2023-01-29T08:40:42;2.00;99.90
20125;DHT22;10223;50.862;4.360;2023-01-29T08:43:11;2.00;99.90
20125;DHT22;10223;50.862;4.360;2023-01-29T08:45:41;2.00;99.90
20125;DHT22;10223;50.862;4.360;2023-01-29T08:48:09;1.90;99.90
20125;DHT22;10223;50.862;4.360;2023-01-29T08:50:36;2.00;99.90
20125;DHT22;10223;50.862;4.360;2023-01-29T08:53:05;1.90;99.90
20125;DHT22;10223;50.862;4.360;2023-01-29T08:55:34;1.90;99.90
20125;DHT22;10223;50.862;4.360;2023-01-29T08:58:03;1.90;99.90
20125;DHT22;10223;50.862;4.360;2023-01-29T09:00:30;1.90;99.90
20125;DHT22;10223;50.862;4.360;2023-01-29T09:02:58;2.00;99.90
20125;DHT22;10223;50.862;4.360;2023-01-29T09:05:26;2.10;99.90
20125;DHT22;10223;50.862;4.360;2023-01-29T09:07:53;2.00;99.90
20125;DHT22;10223;50.862;4.360;2023-01-29T09:10:20;2.10;99.90
20125;DHT22;10223;50.862;4.360;2023-01-29T09:12:46;1.90;99.90
20125;DHT22;10223;50.862;4.360;2023-01-29T09:15:14;1.90;99.90
20125;DHT22;10223;50.862;4.360;2023-01-29T09:17:41;2.00;99.90
20125;DHT22;10223;50.862;4.360;2023-01-29T09:20:10;2.00;99.90
20125;DHT22;10223;50.862;4.360;2023-01-29T09:22:37;2.00;99.90
20125;DHT22;10223;50.862;4.360;2023-01-29T09:25:05;2.00;99.90
20125;DHT22;10223;50.862;4.360;2023-01-29T09:27:32;2.10;99.90
20125;DHT22;10223;50.862;4.360;2023-01-29T09:29:59;2.00;99.90
20125;DHT22;10223;50.862;4.360;2023-01-29T09:32:26;2.00;99.90
20125;DHT22;10223;50.862;4.360;2023-01-29T09:34:55;2.00;99.90
20125;DHT22;10223;50.862;4.360;2023-01-29T09:37:23;2.00;99.90
20125;DHT22;10223;50.862;4.360;2023-01-29T09:39:50;2.00;99.90
20125;DHT22;10223;50.862;4.360;2023-01-29T09:42:23;2.00;99.90
20125;DHT22;10223;50.862;4.360;2023-01-29T09:44:58;2.10;99.90
20125;DHT22;10223;50.862;4.360;2023-01-29T09:47:27;2.20;99.90
20125;DHT22;10223;50.862;4.360;2023-01-29T09:49:58;2.10;99.90
20125;DHT22;10223;50.862;4.360;2023-01-29T09:52:29;2.10;99.90
20125;DHT22;10223;50.862;4.360;2023-01-29T09:55:03;2.20;99.90
20125;DHT22;10223;50.862;4.360;2023-01-29T09:57:37;2.30;99.90
20125;DHT22;10223;50.862;4.360;2023-01-29T10:00:13;2.30;99.90
20125;DHT22;10223;50.862;4.360;2023-01-29T10:03:03;2.30;99.90
20125;DHT22;10223;50.862;4.360;2023-01-29T10:05:48;2.40;99.90
20125;DHT22;10223;50.862;4.360;2023-01-29T10:08:41;2.40;99.90
20125;DHT22;10223;50.862;4.360;2023-01-29T10:11:23;2.40;99.90
20125;DHT22;10223;50.862;4.360;2023-01-29T10:14:03;2.40;99.90
20125;DHT22;10223;50.862;4.360;2023-01-29T10:16:47;2.50;99.90
20125;DHT22;10223;50.862;4.360;2023-01-29T10:19:38;2.60;99.90
20125;DHT22;10223;50.862;4.360;2023-01-29T10:22:24;2.60;99.90
20125;DHT22;10223;50.862;4.360;2023-01-29T10:25:01;2.70;99.90
20125;DHT22;10223;50.862;4.360;2023-01-29T10:27:31;2.70;99.90
20125;DHT22;10223;50.862;4.360;2023-01-29T10:30:00;2.60;99.90
20125;DHT22;10223;50.862;4.360;2023-01-29T10:32:28;2.60;99.90
20125;DHT22;10223;50.862;4.360;2023-01-29T10:34:59;2.70;99.90
20125;DHT22;10223;50.862;4.360;2023-01-29T10:37:35;2.80;99.90
20125;DHT22;10223;50.862;4.360;2023-01-29T10:40:17;2.80;99.90
20125;DHT22;10223;50.862;4.360;2023-01-29T10:42:48;2.80;99.90
20125;DHT22;10223;50.862;4.360;2023-01-29T10:45:23;2.70;99.90
20125;DHT22;10223;50.862;4.360;2023-01-29T10:51:25;2.80;99.90
20125;DHT22;10223;50.862;4.360;2023-01-29T10:54:05;2.70;99.90
20125;DHT22;10223;50.862;4.360;2023-01-29T10:56:45;2.80;99.90
20125;DHT22;10223;50.862;4.360;2023-01-29T10:59:36;2.70;99.90
20125;DHT22;10223;50.862;4.360;2023-01-29T11:02:16;2.70;99.90
20125;DHT22;10223;50.862;4.360;2023-01-29T11:04:44;2.70;99.90
20125;DHT22;10223;50.862;4.360;2023-01-29T11:07:12;2.70;99.90
20125;DHT22;10223;50.862;4.360;2023-01-29T11:09:43;2.70;99.90
20125;DHT22;10223;50.862;4.360;2023-01-29T11:12:15;2.60;99.90
20125;DHT22;10223;50.862;4.360;2023-01-29T11:14:46;2.70;99.90
20125;DHT22;10223;50.862;4.360;2023-01-29T11:17:16;2.70;99.90
20125;DHT22;10223;50.862;4.360;2023-01-29T11:19:46;2.80;99.90
20125;DHT22;10223;50.862;4.360;2023-01-29T11:22:14;2.60;99.90
20125;DHT22;10223;50.862;4.360;2023-01-29T11:24:42;2.60;99.90
20125;DHT22;10223;50.862;4.360;2023-01-29T11:27:20;2.60;99.90
20125;DHT22;10223;50.862;4.360;2023-01-29T11:29:51;2.70;99.90
20125;DHT22;10223;50.862;4.360;2023-01-29T11:32:27;2.80;99.90
20125;DHT22;10223;50.862;4.360;2023-01-29T11:35:03;2.90;99.90
20125;DHT22;10223;50.862;4.360;2023-01-29T11:37:32;2.90;99.90
20125;DHT22;10223;50.862;4.360;2023-01-29T11:40:00;2.90;99.90
20125;DHT22;10223;50.862;4.360;2023-01-29T11:42:30;2.90;99.90
20125;DHT22;10223;50.862;4.360;2023-01-29T11:44:58;2.90;99.90
20125;DHT22;10223;50.862;4.360;2023-01-29T11:47:27;2.80;99.90
20125;DHT22;10223;50.862;4.360;2023-01-29T11:49:55;2.90;99.90
20125;DHT22;10223;50.862;4.360;2023-01-29T11:52:24;3.10;99.90
20125;DHT22;10223;50.862;4.360;2023-01-29T11:54:54;3.00;99.90
20125;DHT22;10223;50.862;4.360;2023-01-29T11:57:26;3.10;99.90
20125;DHT22;10223;50.862;4.360;2023-01-29T11:59:57;3.10;99.90
20125;DHT22;10223;50.862;4.360;2023-01-29T12:02:30;3.20;99.90
20125;DHT22;10223;50.862;4.360;2023-01-29T12:05:01;3.30;99.90
20125;DHT22;10223;50.862;4.360;2023-01-29T12:07:30;3.30;99.90
20125;DHT22;10223;50.862;4.360;2023-01-29T12:09:58;3.40;99.90
20125;DHT22;10223;50.862;4.360;2023-01-29T12:12:43;3.50;99.90
20125;DHT22;10223;50.862;4.360;2023-01-29T12:15:21;3.40;99.90
20125;DHT22;10223;50.862;4.360;2023-01-29T12:18:05;3.50;99.90
20125;DHT22;10223;50.862;4.360;2023-01-29T12:20:36;3.50;99.90
20125;DHT22;10223;50.862;4.360;2023-01-29T12:23:15;3.50;99.90
20125;DHT22;10223;50.862;4.360;2023-01-29T12:25:52;3.60;99.90
20125;DHT22;10223;50.862;4.360;2023-01-29T12:28:37;3.70;99.90
20125;DHT22;10223;50.862;4.360;2023-01-29T12:31:18;3.60;99.90
20125;DHT22;10223;50.862;4.360;2023-01-29T12:33:51;3.70;99.90
20125;DHT22;10223;50.862;4.360;2023-01-29T12:36:23;3.70;99.90
20125;DHT22;10223;50.862;4.360;2023-01-29T12:38:53;3.60;99.90
20125;DHT22;10223;50.862;4.360;2023-01-29T12:41:29;3.60;99.90
20125;DHT22;10223;50.862;4.360;2023-01-29T12:44:00;3.70;99.90
20125;DHT22;10223;50.862;4.360;2023-01-29T12:46:32;3.70;99.90
20125;DHT22;10223;50.862;4.360;2023-01-29T12:49:02;3.70;99.90
20125;DHT22;10223;50.862;4.360;2023-01-29T12:51:34;3.70;99.90
20125;DHT22;10223;50.862;4.360;2023-01-29T12:54:04;3.80;99.90
20125;DHT22;10223;50.862;4.360;2023-01-29T12:56:35;3.80;99.90
20125;DHT22;10223;50.862;4.360;2023-01-29T12:59:11;3.90;99.90
20125;DHT22;10223;50.862;4.360;2023-01-29T13:01:46;3.90;99.90
20125;DHT22;10223;50.862;4.360;2023-01-29T13:04:21;3.90;99.90
20125;DHT22;10223;50.862;4.360;2023-01-29T13:06:55;3.80;99.90
20125;DHT22;10223;50.862;4.360;2023-01-29T13:09:26;3.60;99.90
20125;DHT22;10223;50.862;4.360;2023-01-29T13:11:57;3.70;99.90
20125;DHT22;10223;50.862;4.360;2023-01-29T13:14:27;3.70;99.90
20125;DHT22;10223;50.862;4.360;2023-01-29T13:17:05;3.70;99.90
20125;DHT22;10223;50.862;4.360;2023-01-29T13:19:38;3.80;99.90
20125;DHT22;10223;50.862;4.360;2023-01-29T13:22:15;3.80;99.90
20125;DHT22;10223;50.862;4.360;2023-01-29T13:24:44;3.80;99.90
20125;DHT22;10223;50.862;4.360;2023-01-29T13:27:24;3.90;99.90
20125;DHT22;10223;50.862;4.360;2023-01-29T13:29:52;3.90;99.90
20125;DHT22;10223;50.862;4.360;2023-01-29T13:32:23;3.90;99.90
20125;DHT22;10223;50.862;4.360;2023-01-29T13:34:52;3.90;99.90
20125;DHT22;10223;50.862;4.360;2023-01-29T13:37:26;3.90;99.90
20125;DHT22;10223;50.862;4.360;2023-01-29T13:39:54;4.00;99.90
20125;DHT22;10223;50.862;4.360;2023-01-29T13:42:24;4.10;99.90
20125;DHT22;10223;50.862;4.360;2023-01-29T13:44:54;4.10;99.90
20125;DHT22;10223;50.862;4.360;2023-01-29T13:47:25;4.10;99.90
20125;DHT22;10223;50.862;4.360;2023-01-29T13:49:56;4.10;99.90
20125;DHT22;10223;50.862;4.360;2023-01-29T13:52:33;4.00;99.90
20125;DHT22;10223;50.862;4.360;2023-01-29T13:55:03;3.80;99.90
20125;DHT22;10223;50.862;4.360;2023-01-29T13:57:47;3.80;99.90
20125;DHT22;10223;50.862;4.360;2023-01-29T14:03:53;3.80;99.90
20125;DHT22;10223;50.862;4.360;2023-01-29T14:06:40;3.80;99.90
20125;DHT22;10223;50.862;4.360;2023-01-29T14:15:29;3.90;99.90
20125;DHT22;10223;50.862;4.360;2023-01-29T14:18:15;3.80;99.90
20125;DHT22;10223;50.862;4.360;2023-01-29T14:21:10;3.80;99.90
20125;DHT22;10223;50.862;4.360;2023-01-29T14:23:44;3.70;99.90
20125;DHT22;10223;50.862;4.360;2023-01-29T14:26:40;3.80;99.90
20125;DHT22;10223;50.862;4.360;2023-01-29T14:29:17;3.80;99.90
20125;DHT22;10223;50.862;4.360;2023-01-29T14:31:51;3.80;99.90
20125;DHT22;10223;50.862;4.360;2023-01-29T14:34:23;3.90;99.90
20125;DHT22;10223;50.862;4.360;2023-01-29T14:36:55;3.80;99.90
20125;DHT22;10223;50.862;4.360;2023-01-29T14:39:35;3.90;99.90
20125;DHT22;10223;50.862;4.360;2023-01-29T14:42:13;3.80;99.90
20125;DHT22;10223;50.862;4.360;2023-01-29T14:45:06;3.90;99.90
20125;DHT22;10223;50.862;4.360;2023-01-29T14:48:00;3.90;99.90
20125;DHT22;10223;50.862;4.360;2023-01-29T14:50:47;3.80;99.90
20125;DHT22;10223;50.862;4.360;2023-01-29T14:53:27;3.80;99.90
20125;DHT22;10223;50.862;4.360;2023-01-29T14:55:58;3.70;99.90
20125;DHT22;10223;50.862;4.360;2023-01-29T14:58:33;3.80;99.90
20125;DHT22;10223;50.862;4.360;2023-01-29T15:01:04;3.90;99.90
20125;DHT22;10223;50.862;4.360;2023-01-29T15:03:44;3.90;99.90
20125;DHT22;10223;50.862;4.360;2023-01-29T15:06:22;3.90;99.90
20125;DHT22;10223;50.862;4.360;2023-01-29T15:09:01;3.80;99.90
20125;DHT22;10223;50.862;4.360;2023-01-29T15:11:34;3.70;99.90
20125;DHT22;10223;50.862;4.360;2023-01-29T15:14:13;3.70;99.90
20125;DHT22;10223;50.862;4.360;2023-01-29T15:16:47;3.70;99.90
20125;DHT22;10223;50.862;4.360;2023-01-29T15:19:22;3.80;99.90
20125;DHT22;10223;50.862;4.360;2023-01-29T15:22:09;3.70;99.90
20125;DHT22;10223;50.862;4.360;2023-01-29T15:24:38;3.70;99.90
20125;DHT22;10223;50.862;4.360;2023-01-29T15:27:10;3.70;99.90
20125;DHT22;10223;50.862;4.360;2023-01-29T15:29:38;3.60;99.90
20125;DHT22;10223;50.862;4.360;2023-01-29T15:32:08;3.60;99.90
20125;DHT22;10223;50.862;4.360;2023-01-29T15:34:40;3.60;99.90
20125;DHT22;10223;50.862;4.360;2023-01-29T15:37:23;3.70;99.90
20125;DHT22;10223;50.862;4.360;2023-01-29T15:39:52;3.70;99.90
20125;DHT22;10223;50.862;4.360;2023-01-29T15:42:21;3.70;99.90
20125;DHT22;10223;50.862;4.360;2023-01-29T15:44:51;3.70;99.90
20125;DHT22;10223;50.862;4.360;2023-01-29T15:47:23;3.70;99.90
20125;DHT22;10223;50.862;4.360;2023-01-29T15:49:51;3.70;99.90
20125;DHT22;10223;50.862;4.360;2023-01-29T15:52:22;3.70;99.90
20125;DHT22;10223;50.862;4.360;2023-01-29T15:54:51;3.70;99.90
20125;DHT22;10223;50.862;4.360;2023-01-29T15:57:21;3.70;99.90
20125;DHT22;10223;50.862;4.360;2023-01-29T15:59:50;3.60;99.90
20125;DHT22;10223;50.862;4.360;2023-01-29T16:02:24;3.60;99.90
20125;DHT22;10223;50.862;4.360;2023-01-29T16:04:54;3.80;99.90
20125;DHT22;10223;50.862;4.360;2023-01-29T16:07:21;3.70;99.90
20125;DHT22;10223;50.862;4.360;2023-01-29T16:09:49;3.80;99.90
20125;DHT22;10223;50.862;4.360;2023-01-29T16:12:18;3.60;99.90
20125;DHT22;10223;50.862;4.360;2023-01-29T16:14:45;3.50;99.90
20125;DHT22;10223;50.862;4.360;2023-01-29T16:17:22;3.40;99.90
20125;DHT22;10223;50.862;4.360;2023-01-29T16:19:57;3.70;99.90
20125;DHT22;10223;50.862;4.360;2023-01-29T16:22:31;3.50;99.90
20125;DHT22;10223;50.862;4.360;2023-01-29T16:25:02;3.50;99.90
20125;DHT22;10223;50.862;4.360;2023-01-29T16:27:31;3.60;99.90
20125;DHT22;10223;50.862;4.360;2023-01-29T16:29:59;3.30;99.90